world map with SDL marked

SDL - Airport

This information may not be accurate or current and is not valid for navigation or flight planning. No warranty of fitness for any purpose is made or implied.

flag of Sweden

Donate via PayPal

Additional information is available on the NEW Great Circle Mapper

Location
City:  Sundsvall-Härnösand, Sweden
Name:Midlanda
ICAO / IATA:ESNN / SDL

Details
Type:Airport (Aerodrome, Airfield)
Use:Public/Civil
Latitude:62°31'41"N (62.528125)
Longitude:17°26'38"E (17.443928)
Datum:WGS 1984
Elevation:16 ft (5 m)
Runways:1
Longest:6857 × 148 ft (2090 × 45 m)

Time
Timezone:UTC+1 (DST+2)
Local Time:

Weather
METAR:ESNN  260750Z 15015KT 9999 BKN028 08/07 Q1004 R16/19//95
TAF:ESNN  (expired)

Related Locations
Nearby:
Farthest:NZWD: 11182 mi / 17996 km
McMurdo Station [Williams Field], Ross Island, AQ

Find:

   beyond  
but within

Other Information
Maps:
Links:
Sources:

  


 


Great Circle Mapper   Great Circle Mapper
Great Circle Mapper FAQ   Great Circle Mapper FAQ
  Karl's Home Page
KLS²   KLS² Home
   GC on Facebook
Airlines of the World   Airlines of the World
Donate via PayPal


Copyright © 2004-2014, Karl L. Swartz. All rights reserved.
All trademarks mentioned herein belong to their respective owners.

Please see credits for attribution and copyright information.

Karl Swartz <karl@kls2.com>
  Powered by FreeBSD
Valid HTML 4.01!
Labeled with ICRA
hCard Microformat
Geo Microformat